sensor_id;sensor_type;location;lat;lon;timestamp;temperature;humidity
14755;DHT22;7469;50.906;6.952;2023-08-30T00:01:01;16.40;99.90
14755;DHT22;7469;50.906;6.952;2023-08-30T00:03:30;16.40;99.90
14755;DHT22;7469;50.906;6.952;2023-08-30T00:06:02;16.40;99.90
14755;DHT22;7469;50.906;6.952;2023-08-30T00:08:30;16.40;99.90
14755;DHT22;7469;50.906;6.952;2023-08-30T00:10:59;16.40;99.90
14755;DHT22;7469;50.906;6.952;2023-08-30T00:13:29;16.40;99.90
14755;DHT22;7469;50.906;6.952;2023-08-30T00:15:58;16.40;99.90
14755;DHT22;7469;50.906;6.952;2023-08-30T00:18:26;16.40;99.90
14755;DHT22;7469;50.906;6.952;2023-08-30T00:20:55;16.40;99.90
14755;DHT22;7469;50.906;6.952;2023-08-30T00:23:23;16.40;99.90
14755;DHT22;7469;50.906;6.952;2023-08-30T00:25:51;16.50;99.90
14755;DHT22;7469;50.906;6.952;2023-08-30T00:28:19;16.40;99.90
14755;DHT22;7469;50.906;6.952;2023-08-30T00:30:52;16.40;99.90
14755;DHT22;7469;50.906;6.952;2023-08-30T00:33:22;16.50;99.90
14755;DHT22;7469;50.906;6.952;2023-08-30T00:35:55;16.50;99.90
14755;DHT22;7469;50.906;6.952;2023-08-30T00:38:25;16.50;99.90
14755;DHT22;7469;50.906;6.952;2023-08-30T00:40:53;16.50;99.90
14755;DHT22;7469;50.906;6.952;2023-08-30T00:43:21;16.50;99.90
14755;DHT22;7469;50.906;6.952;2023-08-30T00:45:49;16.30;99.90
14755;DHT22;7469;50.906;6.952;2023-08-30T00:48:19;16.20;99.90
14755;DHT22;7469;50.906;6.952;2023-08-30T00:50:49;16.10;99.90
14755;DHT22;7469;50.906;6.952;2023-08-30T00:53:17;16.00;99.90
14755;DHT22;7469;50.906;6.952;2023-08-30T00:55:46;16.00;99.90
14755;DHT22;7469;50.906;6.952;2023-08-30T00:58:13;16.00;99.90
14755;DHT22;7469;50.906;6.952;2023-08-30T01:00:41;16.00;99.90
14755;DHT22;7469;50.906;6.952;2023-08-30T01:03:09;15.90;99.90
14755;DHT22;7469;50.906;6.952;2023-08-30T01:05:37;15.90;99.90
14755;DHT22;7469;50.906;6.952;2023-08-30T01:08:07;15.80;99.90
14755;DHT22;7469;50.906;6.952;2023-08-30T01:10:47;15.80;99.90
14755;DHT22;7469;50.906;6.952;2023-08-30T01:13:19;15.90;99.90
14755;DHT22;7469;50.906;6.952;2023-08-30T01:15:48;15.90;99.90
14755;DHT22;7469;50.906;6.952;2023-08-30T01:18:19;15.80;99.90
14755;DHT22;7469;50.906;6.952;2023-08-30T01:20:48;15.80;99.90
14755;DHT22;7469;50.906;6.952;2023-08-30T01:23:24;15.80;99.90
14755;DHT22;7469;50.906;6.952;2023-08-30T01:26:00;15.90;99.90
14755;DHT22;7469;50.906;6.952;2023-08-30T01:28:33;15.90;99.90
14755;DHT22;7469;50.906;6.952;2023-08-30T01:31:03;16.00;99.90
14755;DHT22;7469;50.906;6.952;2023-08-30T01:33:33;16.00;99.90
14755;DHT22;7469;50.906;6.952;2023-08-30T01:36:01;16.10;99.90
14755;DHT22;7469;50.906;6.952;2023-08-30T01:38:32;16.10;99.90
14755;DHT22;7469;50.906;6.952;2023-08-30T01:41:00;16.10;99.90
14755;DHT22;7469;50.906;6.952;2023-08-30T01:43:29;16.10;99.90
14755;DHT22;7469;50.906;6.952;2023-08-30T01:46:00;16.00;99.90
14755;DHT22;7469;50.906;6.952;2023-08-30T01:48:29;16.00;99.90
14755;DHT22;7469;50.906;6.952;2023-08-30T01:51:00;16.00;99.90
14755;DHT22;7469;50.906;6.952;2023-08-30T01:53:29;15.90;99.90
14755;DHT22;7469;50.906;6.952;2023-08-30T01:55:58;16.00;99.90
14755;DHT22;7469;50.906;6.952;2023-08-30T01:58:26;16.00;99.90
14755;DHT22;7469;50.906;6.952;2023-08-30T02:00:54;16.00;99.90
14755;DHT22;7469;50.906;6.952;2023-08-30T02:03:24;16.00;99.90
14755;DHT22;7469;50.906;6.952;2023-08-30T02:05:59;16.00;99.90
14755;DHT22;7469;50.906;6.952;2023-08-30T02:08:35;16.00;99.90
14755;DHT22;7469;50.906;6.952;2023-08-30T02:11:08;16.00;99.90
14755;DHT22;7469;50.906;6.952;2023-08-30T02:13:39;15.90;99.90
14755;DHT22;7469;50.906;6.952;2023-08-30T02:16:08;15.90;99.90
14755;DHT22;7469;50.906;6.952;2023-08-30T02:18:39;15.90;99.90
14755;DHT22;7469;50.906;6.952;2023-08-30T02:21:07;15.90;99.90
14755;DHT22;7469;50.906;6.952;2023-08-30T02:23:35;15.90;99.90
14755;DHT22;7469;50.906;6.952;2023-08-30T02:26:03;15.90;99.90
14755;DHT22;7469;50.906;6.952;2023-08-30T02:28:31;16.00;99.90
14755;DHT22;7469;50.906;6.952;2023-08-30T02:30:59;15.90;99.90
14755;DHT22;7469;50.906;6.952;2023-08-30T02:33:27;15.90;99.90
14755;DHT22;7469;50.906;6.952;2023-08-30T02:35:57;15.90;99.90
14755;DHT22;7469;50.906;6.952;2023-08-30T02:38:25;15.90;99.90
14755;DHT22;7469;50.906;6.952;2023-08-30T02:40:52;15.90;99.90
14755;DHT22;7469;50.906;6.952;2023-08-30T02:43:21;15.90;99.90
14755;DHT22;7469;50.906;6.952;2023-08-30T02:45:52;15.80;99.90
14755;DHT22;7469;50.906;6.952;2023-08-30T02:48:20;15.80;99.90
14755;DHT22;7469;50.906;6.952;2023-08-30T02:50:48;15.80;99.90
14755;DHT22;7469;50.906;6.952;2023-08-30T02:53:17;15.70;99.90
14755;DHT22;7469;50.906;6.952;2023-08-30T02:55:46;15.70;99.90
14755;DHT22;7469;50.906;6.952;2023-08-30T02:58:14;15.70;99.90
14755;DHT22;7469;50.906;6.952;2023-08-30T03:00:42;15.70;99.90
14755;DHT22;7469;50.906;6.952;2023-08-30T03:03:10;15.60;99.90
14755;DHT22;7469;50.906;6.952;2023-08-30T03:05:38;15.60;99.90
14755;DHT22;7469;50.906;6.952;2023-08-30T03:08:07;15.60;99.90
14755;DHT22;7469;50.906;6.952;2023-08-30T03:10:36;15.60;99.90
14755;DHT22;7469;50.906;6.952;2023-08-30T03:13:04;15.60;99.90
14755;DHT22;7469;50.906;6.952;2023-08-30T03:15:32;15.50;99.90
14755;DHT22;7469;50.906;6.952;2023-08-30T03:18:00;15.50;99.90
14755;DHT22;7469;50.906;6.952;2023-08-30T03:20:28;15.50;99.90
14755;DHT22;7469;50.906;6.952;2023-08-30T03:22:56;15.50;99.90
14755;DHT22;7469;50.906;6.952;2023-08-30T03:25:27;15.40;99.90
14755;DHT22;7469;50.906;6.952;2023-08-30T03:27:57;15.30;99.90
14755;DHT22;7469;50.906;6.952;2023-08-30T03:30:25;15.30;99.90
14755;DHT22;7469;50.906;6.952;2023-08-30T03:32:53;15.20;99.90
14755;DHT22;7469;50.906;6.952;2023-08-30T03:35:21;15.10;99.90
14755;DHT22;7469;50.906;6.952;2023-08-30T03:37:49;15.10;99.90
14755;DHT22;7469;50.906;6.952;2023-08-30T03:40:17;15.00;99.90
14755;DHT22;7469;50.906;6.952;2023-08-30T03:42:45;15.00;99.90
14755;DHT22;7469;50.906;6.952;2023-08-30T03:45:14;15.00;99.90
14755;DHT22;7469;50.906;6.952;2023-08-30T03:47:42;15.00;99.90
14755;DHT22;7469;50.906;6.952;2023-08-30T03:50:10;14.90;99.90
14755;DHT22;7469;50.906;6.952;2023-08-30T03:52:38;14.90;99.90
14755;DHT22;7469;50.906;6.952;2023-08-30T03:55:07;14.90;99.90
14755;DHT22;7469;50.906;6.952;2023-08-30T03:57:35;14.90;99.90
14755;DHT22;7469;50.906;6.952;2023-08-30T04:00:03;14.90;99.90
14755;DHT22;7469;50.906;6.952;2023-08-30T04:02:33;14.90;99.90
14755;DHT22;7469;50.906;6.952;2023-08-30T04:05:01;14.90;99.90
14755;DHT22;7469;50.906;6.952;2023-08-30T04:07:30;14.90;99.90
14755;DHT22;7469;50.906;6.952;2023-08-30T04:09:58;14.90;99.90
14755;DHT22;7469;50.906;6.952;2023-08-30T04:12:26;14.80;99.90
14755;DHT22;7469;50.906;6.952;2023-08-30T04:14:54;14.80;99.90
14755;DHT22;7469;50.906;6.952;2023-08-30T04:17:21;14.70;99.90
14755;DHT22;7469;50.906;6.952;2023-08-30T04:19:53;14.60;99.90
14755;DHT22;7469;50.906;6.952;2023-08-30T04:22:21;14.60;99.90
14755;DHT22;7469;50.906;6.952;2023-08-30T04:24:49;14.50;99.90
14755;DHT22;7469;50.906;6.952;2023-08-30T04:27:17;14.50;99.90
14755;DHT22;7469;50.906;6.952;2023-08-30T04:29:44;14.60;99.90
14755;DHT22;7469;50.906;6.952;2023-08-30T04:32:12;14.60;99.90
14755;DHT22;7469;50.906;6.952;2023-08-30T04:34:40;14.70;99.90
14755;DHT22;7469;50.906;6.952;2023-08-30T04:37:09;14.70;99.90
14755;DHT22;7469;50.906;6.952;2023-08-30T04:39:37;14.70;99.90
14755;DHT22;7469;50.906;6.952;2023-08-30T04:42:06;14.70;99.90
14755;DHT22;7469;50.906;6.952;2023-08-30T04:44:33;14.70;99.90
14755;DHT22;7469;50.906;6.952;2023-08-30T04:47:01;14.60;99.90
14755;DHT22;7469;50.906;6.952;2023-08-30T04:49:30;14.60;99.90
14755;DHT22;7469;50.906;6.952;2023-08-30T04:51:58;14.60;99.90
14755;DHT22;7469;50.906;6.952;2023-08-30T04:54:27;14.60;99.90
14755;DHT22;7469;50.906;6.952;2023-08-30T04:56:55;14.60;99.90
14755;DHT22;7469;50.906;6.952;2023-08-30T04:59:24;14.60;99.90
14755;DHT22;7469;50.906;6.952;2023-08-30T05:01:52;14.60;99.90
14755;DHT22;7469;50.906;6.952;2023-08-30T05:04:20;14.60;99.90
14755;DHT22;7469;50.906;6.952;2023-08-30T05:06:48;14.60;99.90
14755;DHT22;7469;50.906;6.952;2023-08-30T05:09:16;14.50;99.90
14755;DHT22;7469;50.906;6.952;2023-08-30T05:11:45;14.50;99.90
14755;DHT22;7469;50.906;6.952;2023-08-30T05:14:13;14.50;99.90
14755;DHT22;7469;50.906;6.952;2023-08-30T05:16:41;14.40;99.90
14755;DHT22;7469;50.906;6.952;2023-08-30T05:19:09;14.30;99.90
14755;DHT22;7469;50.906;6.952;2023-08-30T05:21:37;14.30;99.90
14755;DHT22;7469;50.906;6.952;2023-08-30T05:24:05;14.20;99.90
14755;DHT22;7469;50.906;6.952;2023-08-30T05:26:34;14.30;99.90
14755;DHT22;7469;50.906;6.952;2023-08-30T05:29:03;14.20;99.90
14755;DHT22;7469;50.906;6.952;2023-08-30T05:31:31;14.20;99.90
14755;DHT22;7469;50.906;6.952;2023-08-30T05:33:59;14.20;99.90
14755;DHT22;7469;50.906;6.952;2023-08-30T05:36:27;14.20;99.90
14755;DHT22;7469;50.906;6.952;2023-08-30T05:38:55;14.20;99.90
14755;DHT22;7469;50.906;6.952;2023-08-30T05:41:23;14.20;99.90
14755;DHT22;7469;50.906;6.952;2023-08-30T05:43:51;14.20;99.90
14755;DHT22;7469;50.906;6.952;2023-08-30T05:46:21;14.20;99.90
14755;DHT22;7469;50.906;6.952;2023-08-30T05:48:49;14.30;99.90
14755;DHT22;7469;50.906;6.952;2023-08-30T05:51:17;14.30;99.90
14755;DHT22;7469;50.906;6.952;2023-08-30T05:53:46;14.30;99.90
14755;DHT22;7469;50.906;6.952;2023-08-30T05:56:14;14.30;99.90
14755;DHT22;7469;50.906;6.952;2023-08-30T05:58:43;14.30;99.90
14755;DHT22;7469;50.906;6.952;2023-08-30T06:01:11;14.30;99.90
14755;DHT22;7469;50.906;6.952;2023-08-30T06:03:41;14.30;99.90
14755;DHT22;7469;50.906;6.952;2023-08-30T06:06:09;14.40;99.90
14755;DHT22;7469;50.906;6.952;2023-08-30T06:08:37;14.40;99.90
14755;DHT22;7469;50.906;6.952;2023-08-30T06:11:04;14.50;99.90
14755;DHT22;7469;50.906;6.952;2023-08-30T06:13:32;14.50;99.90
14755;DHT22;7469;50.906;6.952;2023-08-30T06:16:00;14.50;99.90
14755;DHT22;7469;50.906;6.952;2023-08-30T06:18:30;14.40;99.90
14755;DHT22;7469;50.906;6.952;2023-08-30T06:21:00;14.50;99.90
14755;DHT22;7469;50.906;6.952;2023-08-30T06:23:28;14.50;99.90
14755;DHT22;7469;50.906;6.952;2023-08-30T06:25:56;14.50;99.90
14755;DHT22;7469;50.906;6.952;2023-08-30T06:28:24;14.60;99.90
14755;DHT22;7469;50.906;6.952;2023-08-30T06:30:52;14.60;99.90
14755;DHT22;7469;50.906;6.952;2023-08-30T06:33:20;14.60;99.90
14755;DHT22;7469;50.906;6.952;2023-08-30T06:35:49;14.70;99.90
14755;DHT22;7469;50.906;6.952;2023-08-30T06:38:18;14.70;99.90
14755;DHT22;7469;50.906;6.952;2023-08-30T06:40:46;14.80;99.90
14755;DHT22;7469;50.906;6.952;2023-08-30T06:43:15;14.80;99.90
14755;DHT22;7469;50.906;6.952;2023-08-30T06:45:45;14.90;99.90
14755;DHT22;7469;50.906;6.952;2023-08-30T06:48:13;15.00;99.90
14755;DHT22;7469;50.906;6.952;2023-08-30T06:50:41;15.10;99.90
14755;DHT22;7469;50.906;6.952;2023-08-30T06:53:09;15.20;99.90
14755;DHT22;7469;50.906;6.952;2023-08-30T06:55:38;15.30;99.90
14755;DHT22;7469;50.906;6.952;2023-08-30T06:58:06;15.40;99.90
14755;DHT22;7469;50.906;6.952;2023-08-30T07:00:34;15.60;99.90
14755;DHT22;7469;50.906;6.952;2023-08-30T07:03:02;15.70;99.90
14755;DHT22;7469;50.906;6.952;2023-08-30T07:05:30;15.80;99.90
14755;DHT22;7469;50.906;6.952;2023-08-30T07:07:58;15.90;99.90
14755;DHT22;7469;50.906;6.952;2023-08-30T07:10:26;16.00;99.90
14755;DHT22;7469;50.906;6.952;2023-08-30T07:12:55;16.00;99.90
14755;DHT22;7469;50.906;6.952;2023-08-30T07:15:23;16.10;99.90
14755;DHT22;7469;50.906;6.952;2023-08-30T07:17:51;16.20;99.90
14755;DHT22;7469;50.906;6.952;2023-08-30T07:20:22;16.30;99.90
14755;DHT22;7469;50.906;6.952;2023-08-30T07:22:50;16.40;99.90
14755;DHT22;7469;50.906;6.952;2023-08-30T07:25:18;16.40;99.90
14755;DHT22;7469;50.906;6.952;2023-08-30T07:27:46;16.40;99.90
14755;DHT22;7469;50.906;6.952;2023-08-30T07:30:15;16.40;99.90
14755;DHT22;7469;50.906;6.952;2023-08-30T07:32:44;16.50;99.90
14755;DHT22;7469;50.906;6.952;2023-08-30T07:35:12;16.60;99.90
14755;DHT22;7469;50.906;6.952;2023-08-30T07:37:41;16.70;99.90
14755;DHT22;7469;50.906;6.952;2023-08-30T07:40:10;16.80;99.90
14755;DHT22;7469;50.906;6.952;2023-08-30T07:42:38;16.80;99.90
14755;DHT22;7469;50.906;6.952;2023-08-30T07:45:07;16.90;99.90
14755;DHT22;7469;50.906;6.952;2023-08-30T07:47:39;17.00;99.90
14755;DHT22;7469;50.906;6.952;2023-08-30T07:50:07;17.10;99.90
14755;DHT22;7469;50.906;6.952;2023-08-30T07:52:35;17.20;99.90
14755;DHT22;7469;50.906;6.952;2023-08-30T07:55:12;17.30;99.90
14755;DHT22;7469;50.906;6.952;2023-08-30T07:57:40;17.40;99.90
14755;DHT22;7469;50.906;6.952;2023-08-30T08:00:09;17.60;99.90
14755;DHT22;7469;50.906;6.952;2023-08-30T08:02:39;17.70;99.90
14755;DHT22;7469;50.906;6.952;2023-08-30T08:05:08;17.80;99.90
14755;DHT22;7469;50.906;6.952;2023-08-30T08:07:38;17.90;99.90
14755;DHT22;7469;50.906;6.952;2023-08-30T08:10:07;17.90;99.90
14755;DHT22;7469;50.906;6.952;2023-08-30T08:12:36;17.90;99.90
14755;DHT22;7469;50.906;6.952;2023-08-30T08:15:05;18.00;99.90
14755;DHT22;7469;50.906;6.952;2023-08-30T08:17:33;18.10;99.90
14755;DHT22;7469;50.906;6.952;2023-08-30T08:20:04;18.30;99.90
14755;DHT22;7469;50.906;6.952;2023-08-30T08:22:33;18.40;99.90
14755;DHT22;7469;50.906;6.952;2023-08-30T08:25:01;18.40;99.90
14755;DHT22;7469;50.906;6.952;2023-08-30T08:27:29;18.60;99.90
14755;DHT22;7469;50.906;6.952;2023-08-30T08:29:57;18.70;99.90
14755;DHT22;7469;50.906;6.952;2023-08-30T08:32:25;18.80;99.90
14755;DHT22;7469;50.906;6.952;2023-08-30T08:34:53;19.00;99.90
14755;DHT22;7469;50.906;6.952;2023-08-30T08:37:23;19.10;99.90
14755;DHT22;7469;50.906;6.952;2023-08-30T08:39:51;19.20;99.90
14755;DHT22;7469;50.906;6.952;2023-08-30T08:42:19;19.40;99.90
14755;DHT22;7469;50.906;6.952;2023-08-30T08:44:50;19.40;99.90
14755;DHT22;7469;50.906;6.952;2023-08-30T08:47:20;19.50;99.90
14755;DHT22;7469;50.906;6.952;2023-08-30T08:49:48;19.60;99.90
14755;DHT22;7469;50.906;6.952;2023-08-30T08:52:17;19.80;99.90
14755;DHT22;7469;50.906;6.952;2023-08-30T08:54:59;19.90;99.90
14755;DHT22;7469;50.906;6.952;2023-08-30T08:57:29;20.00;99.90
14755;DHT22;7469;50.906;6.952;2023-08-30T08:59:58;20.10;99.90
14755;DHT22;7469;50.906;6.952;2023-08-30T09:02:26;20.30;99.90
14755;DHT22;7469;50.906;6.952;2023-08-30T09:04:56;20.30;99.90
14755;DHT22;7469;50.906;6.952;2023-08-30T09:07:26;20.40;99.90
14755;DHT22;7469;50.906;6.952;2023-08-30T09:09:54;20.40;99.90
14755;DHT22;7469;50.906;6.952;2023-08-30T09:12:24;20.40;99.90
14755;DHT22;7469;50.906;6.952;2023-08-30T09:14:55;20.40;99.90
14755;DHT22;7469;50.906;6.952;2023-08-30T09:17:34;20.40;99.90
14755;DHT22;7469;50.906;6.952;2023-08-30T09:20:07;20.30;99.90
14755;DHT22;7469;50.906;6.952;2023-08-30T09:22:41;20.20;99.90
14755;DHT22;7469;50.906;6.952;2023-08-30T09:25:11;20.20;99.90
14755;DHT22;7469;50.906;6.952;2023-08-30T09:27:42;20.10;99.90
14755;DHT22;7469;50.906;6.952;2023-08-30T09:30:10;20.00;99.90
14755;DHT22;7469;50.906;6.952;2023-08-30T09:32:40;20.00;99.90
14755;DHT22;7469;50.906;6.952;2023-08-30T09:35:09;19.90;99.90
14755;DHT22;7469;50.906;6.952;2023-08-30T09:37:37;19.80;99.90
14755;DHT22;7469;50.906;6.952;2023-08-30T09:40:06;19.80;99.90
14755;DHT22;7469;50.906;6.952;2023-08-30T09:42:35;19.80;99.90
14755;DHT22;7469;50.906;6.952;2023-08-30T09:45:18;19.80;99.90
14755;DHT22;7469;50.906;6.952;2023-08-30T09:47:49;19.80;99.90
14755;DHT22;7469;50.906;6.952;2023-08-30T09:50:19;19.90;99.90
14755;DHT22;7469;50.906;6.952;2023-08-30T09:52:48;19.90;99.90
14755;DHT22;7469;50.906;6.952;2023-08-30T09:55:19;19.80;99.90
14755;DHT22;7469;50.906;6.952;2023-08-30T09:57:48;19.80;99.90
14755;DHT22;7469;50.906;6.952;2023-08-30T10:00:18;19.70;99.90
14755;DHT22;7469;50.906;6.952;2023-08-30T10:02:47;19.60;99.90
14755;DHT22;7469;50.906;6.952;2023-08-30T10:05:35;19.60;99.90
14755;DHT22;7469;50.906;6.952;2023-08-30T10:08:04;19.60;99.90
14755;DHT22;7469;50.906;6.952;2023-08-30T10:10:34;19.50;99.90
14755;DHT22;7469;50.906;6.952;2023-08-30T10:13:05;19.40;99.90
14755;DHT22;7469;50.906;6.952;2023-08-30T10:15:43;19.30;99.90
14755;DHT22;7469;50.906;6.952;2023-08-30T10:18:18;19.10;99.90
14755;DHT22;7469;50.906;6.952;2023-08-30T10:20:48;19.10;99.90
14755;DHT22;7469;50.906;6.952;2023-08-30T10:23:18;19.10;99.90
14755;DHT22;7469;50.906;6.952;2023-08-30T10:25:47;19.00;99.90
14755;DHT22;7469;50.906;6.952;2023-08-30T10:28:19;18.90;99.90
14755;DHT22;7469;50.906;6.952;2023-08-30T10:30:48;18.90;99.90
14755;DHT22;7469;50.906;6.952;2023-08-30T10:33:17;18.90;99.90
14755;DHT22;7469;50.906;6.952;2023-08-30T10:35:49;18.80;99.90
14755;DHT22;7469;50.906;6.952;2023-08-30T10:38:28;18.70;99.90
14755;DHT22;7469;50.906;6.952;2023-08-30T10:41:06;18.80;99.90
14755;DHT22;7469;50.906;6.952;2023-08-30T10:43:35;18.80;99.90
14755;DHT22;7469;50.906;6.952;2023-08-30T10:46:06;18.70;99.90
14755;DHT22;7469;50.906;6.952;2023-08-30T10:48:36;18.70;99.90
14755;DHT22;7469;50.906;6.952;2023-08-30T10:53:33;18.80;99.90
14755;DHT22;7469;50.906;6.952;2023-08-30T10:56:10;18.90;99.90
14755;DHT22;7469;50.906;6.952;2023-08-30T10:58:42;19.00;99.90
14755;DHT22;7469;50.906;6.952;2023-08-30T11:01:12;19.00;99.90
14755;DHT22;7469;50.906;6.952;2023-08-30T11:03:41;19.10;99.90
14755;DHT22;7469;50.906;6.952;2023-08-30T11:06:13;19.10;99.90
14755;DHT22;7469;50.906;6.952;2023-08-30T11:08:42;19.10;99.90
14755;DHT22;7469;50.906;6.952;2023-08-30T11:11:10;19.10;99.90
14755;DHT22;7469;50.906;6.952;2023-08-30T11:13:41;19.10;99.90
14755;DHT22;7469;50.906;6.952;2023-08-30T11:16:09;19.20;99.90
14755;DHT22;7469;50.906;6.952;2023-08-30T11:18:39;19.10;99.90
14755;DHT22;7469;50.906;6.952;2023-08-30T11:21:09;18.90;99.90
14755;DHT22;7469;50.906;6.952;2023-08-30T11:23:39;18.70;99.90
14755;DHT22;7469;50.906;6.952;2023-08-30T11:26:07;18.50;99.90
14755;DHT22;7469;50.906;6.952;2023-08-30T11:28:35;18.30;99.90
14755;DHT22;7469;50.906;6.952;2023-08-30T11:31:08;18.10;99.90
14755;DHT22;7469;50.906;6.952;2023-08-30T11:33:36;18.10;99.90
14755;DHT22;7469;50.906;6.952;2023-08-30T11:36:05;18.00;99.90
14755;DHT22;7469;50.906;6.952;2023-08-30T11:38:34;17.90;99.90
14755;DHT22;7469;50.906;6.952;2023-08-30T11:41:03;17.90;99.90
14755;DHT22;7469;50.906;6.952;2023-08-30T11:43:31;17.90;99.90
14755;DHT22;7469;50.906;6.952;2023-08-30T11:45:59;17.80;99.90
14755;DHT22;7469;50.906;6.952;2023-08-30T11:48:29;17.80;99.90
14755;DHT22;7469;50.906;6.952;2023-08-30T11:50:57;17.70;99.90
14755;DHT22;7469;50.906;6.952;2023-08-30T11:53:27;17.70;99.90
14755;DHT22;7469;50.906;6.952;2023-08-30T11:55:55;17.60;99.90
14755;DHT22;7469;50.906;6.952;2023-08-30T11:58:24;17.70;99.90
14755;DHT22;7469;50.906;6.952;2023-08-30T12:00:52;17.70;99.90
14755;DHT22;7469;50.906;6.952;2023-08-30T12:03:21;17.70;99.90
14755;DHT22;7469;50.906;6.952;2023-08-30T12:05:49;17.70;99.90
14755;DHT22;7469;50.906;6.952;2023-08-30T12:08:18;17.70;99.90
14755;DHT22;7469;50.906;6.952;2023-08-30T12:10:47;17.80;99.90
14755;DHT22;7469;50.906;6.952;2023-08-30T12:13:22;17.80;99.90
14755;DHT22;7469;50.906;6.952;2023-08-30T12:15:50;17.80;99.90
14755;DHT22;7469;50.906;6.952;2023-08-30T12:18:21;17.70;99.90
14755;DHT22;7469;50.906;6.952;2023-08-30T12:20:54;17.70;99.90
14755;DHT22;7469;50.906;6.952;2023-08-30T12:23:23;17.80;99.90
14755;DHT22;7469;50.906;6.952;2023-08-30T12:26:00;17.80;99.90
14755;DHT22;7469;50.906;6.952;2023-08-30T12:28:28;17.80;99.90
14755;DHT22;7469;50.906;6.952;2023-08-30T12:30:56;17.80;99.90
14755;DHT22;7469;50.906;6.952;2023-08-30T12:33:26;17.80;99.90
14755;DHT22;7469;50.906;6.952;2023-08-30T12:35:56;17.80;99.90
14755;DHT22;7469;50.906;6.952;2023-08-30T12:38:24;17.70;99.90
14755;DHT22;7469;50.906;6.952;2023-08-30T12:40:54;17.70;99.90
14755;DHT22;7469;50.906;6.952;2023-08-30T12:43:24;17.60;99.90
14755;DHT22;7469;50.906;6.952;2023-08-30T12:45:52;17.60;99.90
14755;DHT22;7469;50.906;6.952;2023-08-30T12:48:20;17.40;99.90
14755;DHT22;7469;50.906;6.952;2023-08-30T12:50:48;17.40;99.90
14755;DHT22;7469;50.906;6.952;2023-08-30T12:53:16;17.30;99.90
14755;DHT22;7469;50.906;6.952;2023-08-30T12:55:44;17.10;99.90
14755;DHT22;7469;50.906;6.952;2023-08-30T12:58:12;17.10;99.90
14755;DHT22;7469;50.906;6.952;2023-08-30T13:00:42;17.10;99.90
14755;DHT22;7469;50.906;6.952;2023-08-30T13:03:10;17.10;99.90
14755;DHT22;7469;50.906;6.952;2023-08-30T13:05:38;17.10;99.90
14755;DHT22;7469;50.906;6.952;2023-08-30T13:08:06;17.10;99.90
14755;DHT22;7469;50.906;6.952;2023-08-30T13:10:34;17.10;99.90
14755;DHT22;7469;50.906;6.952;2023-08-30T13:13:02;17.20;99.90
14755;DHT22;7469;50.906;6.952;2023-08-30T13:15:30;17.20;99.90
14755;DHT22;7469;50.906;6.952;2023-08-30T13:17:59;17.30;99.90
14755;DHT22;7469;50.906;6.952;2023-08-30T13:20:27;17.30;99.90
14755;DHT22;7469;50.906;6.952;2023-08-30T13:22:55;17.30;99.90
14755;DHT22;7469;50.906;6.952;2023-08-30T13:25:23;17.30;99.90
14755;DHT22;7469;50.906;6.952;2023-08-30T13:27:52;17.30;99.90
14755;DHT22;7469;50.906;6.952;2023-08-30T13:30:20;17.30;99.90
14755;DHT22;7469;50.906;6.952;2023-08-30T13:32:48;17.30;99.90
14755;DHT22;7469;50.906;6.952;2023-08-30T13:35:17;17.40;99.90
14755;DHT22;7469;50.906;6.952;2023-08-30T13:37:45;17.40;99.90
14755;DHT22;7469;50.906;6.952;2023-08-30T13:40:13;17.30;99.90
14755;DHT22;7469;50.906;6.952;2023-08-30T13:42:41;17.30;99.90
14755;DHT22;7469;50.906;6.952;2023-08-30T13:45:10;17.30;99.90
14755;DHT22;7469;50.906;6.952;2023-08-30T13:47:40;17.30;99.90
14755;DHT22;7469;50.906;6.952;2023-08-30T13:50:08;17.20;99.90
14755;DHT22;7469;50.906;6.952;2023-08-30T13:52:38;17.20;99.90
14755;DHT22;7469;50.906;6.952;2023-08-30T13:55:06;17.10;99.90
14755;DHT22;7469;50.906;6.952;2023-08-30T13:57:34;17.10;99.90
14755;DHT22;7469;50.906;6.952;2023-08-30T14:00:03;17.10;99.90
14755;DHT22;7469;50.906;6.952;2023-08-30T14:02:36;16.90;99.90
14755;DHT22;7469;50.906;6.952;2023-08-30T14:05:05;16.90;99.90
14755;DHT22;7469;50.906;6.952;2023-08-30T14:07:33;16.90;99.90
14755;DHT22;7469;50.906;6.952;2023-08-30T14:10:03;16.90;99.90
14755;DHT22;7469;50.906;6.952;2023-08-30T14:12:31;16.80;99.90
14755;DHT22;7469;50.906;6.952;2023-08-30T14:15:00;16.70;99.90
14755;DHT22;7469;50.906;6.952;2023-08-30T14:17:29;16.70;99.90
14755;DHT22;7469;50.906;6.952;2023-08-30T14:19:57;16.70;99.90
14755;DHT22;7469;50.906;6.952;2023-08-30T14:22:25;16.70;99.90
14755;DHT22;7469;50.906;6.952;2023-08-30T14:24:52;16.70;99.90
14755;DHT22;7469;50.906;6.952;2023-08-30T14:27:39;16.60;99.90
14755;DHT22;7469;50.906;6.952;2023-08-30T14:30:07;16.50;99.90
14755;DHT22;7469;50.906;6.952;2023-08-30T14:32:35;16.50;99.90
14755;DHT22;7469;50.906;6.952;2023-08-30T14:35:04;16.50;99.90
14755;DHT22;7469;50.906;6.952;2023-08-30T14:37:32;16.50;99.90
14755;DHT22;7469;50.906;6.952;2023-08-30T14:40:01;16.40;99.90
14755;DHT22;7469;50.906;6.952;2023-08-30T14:42:30;16.40;99.90
14755;DHT22;7469;50.906;6.952;2023-08-30T14:45:00;16.30;99.90
14755;DHT22;7469;50.906;6.952;2023-08-30T14:47:29;16.30;99.90
14755;DHT22;7469;50.906;6.952;2023-08-30T14:49:58;16.30;99.90
14755;DHT22;7469;50.906;6.952;2023-08-30T14:52:27;16.30;99.90
14755;DHT22;7469;50.906;6.952;2023-08-30T14:54:55;16.30;99.90
14755;DHT22;7469;50.906;6.952;2023-08-30T14:57:23;16.30;99.90
14755;DHT22;7469;50.906;6.952;2023-08-30T14:59:53;16.30;99.90
14755;DHT22;7469;50.906;6.952;2023-08-30T15:02:22;16.40;99.90
14755;DHT22;7469;50.906;6.952;2023-08-30T15:04:50;16.40;99.90
14755;DHT22;7469;50.906;6.952;2023-08-30T15:07:18;16.40;99.90
14755;DHT22;7469;50.906;6.952;2023-08-30T15:09:46;16.50;99.90
14755;DHT22;7469;50.906;6.952;2023-08-30T15:12:14;16.60;99.90
14755;DHT22;7469;50.906;6.952;2023-08-30T15:14:42;16.70;99.90
14755;DHT22;7469;50.906;6.952;2023-08-30T15:17:10;16.80;99.90
14755;DHT22;7469;50.906;6.952;2023-08-30T15:19:41;17.50;99.90
14755;DHT22;7469;50.906;6.952;2023-08-30T15:22:09;18.00;99.90
14755;DHT22;7469;50.906;6.952;2023-08-30T15:24:37;18.30;99.90
14755;DHT22;7469;50.906;6.952;2023-08-30T15:27:05;18.10;99.90
14755;DHT22;7469;50.906;6.952;2023-08-30T15:29:33;17.90;99.90
14755;DHT22;7469;50.906;6.952;2023-08-30T15:32:01;17.70;99.90
14755;DHT22;7469;50.906;6.952;2023-08-30T15:34:29;17.60;99.90
14755;DHT22;7469;50.906;6.952;2023-08-30T15:36:59;17.50;99.90
14755;DHT22;7469;50.906;6.952;2023-08-30T15:39:27;17.40;99.90
14755;DHT22;7469;50.906;6.952;2023-08-30T15:41:55;17.40;99.90
14755;DHT22;7469;50.906;6.952;2023-08-30T15:44:24;17.40;99.90
14755;DHT22;7469;50.906;6.952;2023-08-30T15:46:52;17.30;99.90
14755;DHT22;7469;50.906;6.952;2023-08-30T15:49:20;17.20;99.90
14755;DHT22;7469;50.906;6.952;2023-08-30T15:51:48;17.10;99.90
14755;DHT22;7469;50.906;6.952;2023-08-30T15:54:17;17.00;99.90
14755;DHT22;7469;50.906;6.952;2023-08-30T15:56:46;17.00;99.90
14755;DHT22;7469;50.906;6.952;2023-08-30T15:59:14;17.10;99.90